createdAt,value
2019-03-24T00:00:06.907Z,57.10
2019-03-24T00:02:37.488Z,57.30
2019-03-24T00:05:08.422Z,57.60
2019-03-24T00:07:38.334Z,57.80
2019-03-24T00:10:09.188Z,58.00
2019-03-24T00:12:39.550Z,58.20
2019-03-24T00:15:09.884Z,58.10
2019-03-24T00:17:39.687Z,58.10
2019-03-24T00:20:10.399Z,58.10
2019-03-24T00:22:40.234Z,57.70
2019-03-24T00:25:10.975Z,57.50
2019-03-24T00:27:43.262Z,56.80
2019-03-24T00:30:13.298Z,56.80
2019-03-24T00:32:43.172Z,57.10
2019-03-24T00:35:12.890Z,57.30
2019-03-24T00:37:43.614Z,57.50
2019-03-24T00:40:13.779Z,57.60
2019-03-24T00:42:46.191Z,57.90
2019-03-24T00:45:16.795Z,58.10
2019-03-24T00:47:49.571Z,57.90
2019-03-24T00:50:20.648Z,57.80
2019-03-24T00:52:50.508Z,57.50
2019-03-24T00:55:20.425Z,57.40
2019-03-24T00:57:50.681Z,57.40
2019-03-24T01:00:41.857Z,57.10
2019-03-24T01:03:12.994Z,57.20
2019-03-24T01:05:43.070Z,57.10
2019-03-24T01:08:16.343Z,57.20
2019-03-24T01:10:47.028Z,56.80
2019-03-24T01:13:17.325Z,56.80
2019-03-24T01:15:48.986Z,56.90
2019-03-24T01:18:20.189Z,57.00
2019-03-24T01:20:50.257Z,56.70
2019-03-24T01:23:19.027Z,56.50
2019-03-24T01:25:47.935Z,56.60
2019-03-24T01:28:17.834Z,56.60
2019-03-24T01:30:47.960Z,56.80
2019-03-24T01:33:17.502Z,57.00
2019-03-24T01:35:49.999Z,57.40
2019-03-24T01:38:21.291Z,57.50
2019-03-24T01:40:51.030Z,57.70
2019-03-24T01:43:21.863Z,58.10
2019-03-24T01:45:58.611Z,58.10
2019-03-24T01:48:24.090Z,58.10
2019-03-24T01:50:55.727Z,58.20
2019-03-24T01:53:26.067Z,58.10
2019-03-24T01:55:56.882Z,58.10
2019-03-24T01:58:27.110Z,58.20
2019-03-24T02:01:00.815Z,58.00
2019-03-24T02:03:33.187Z,59.20
2019-03-24T02:06:03.089Z,59.30
2019-03-24T02:08:37.035Z,59.30
2019-03-24T02:11:08.305Z,59.30
2019-03-24T02:13:39.073Z,59.20
2019-03-24T02:16:09.866Z,59.30
2019-03-24T02:18:41.779Z,59.40
2019-03-24T02:21:11.772Z,59.50
2019-03-24T02:23:41.926Z,59.40
2019-03-24T02:26:16.169Z,59.40
2019-03-24T02:28:47.301Z,59.60
2019-03-24T02:31:18.653Z,59.40
2019-03-24T02:33:50.956Z,59.40
2019-03-24T02:36:21.340Z,59.60
2019-03-24T02:38:50.311Z,59.90
2019-03-24T02:41:20.555Z,60.00
2019-03-24T02:43:50.898Z,60.40
2019-03-24T02:46:24.695Z,61.10
2019-03-24T02:48:55.635Z,61.40
2019-03-24T02:51:26.359Z,61.60
2019-03-24T02:53:59.031Z,61.50
2019-03-24T02:56:30.245Z,62.00
2019-03-24T02:59:03.109Z,62.50
2019-03-24T03:01:33.171Z,62.60
2019-03-24T03:04:04.448Z,62.70
2019-03-24T03:06:34.935Z,63.00
2019-03-24T03:09:07.117Z,63.30
2019-03-24T03:11:39.058Z,63.90
2019-03-24T03:14:11.743Z,64.00
2019-03-24T03:16:44.467Z,64.30
2019-03-24T03:19:14.777Z,64.60
2019-03-24T03:21:45.655Z,64.90
2019-03-24T03:24:17.032Z,64.80
2019-03-24T03:26:47.865Z,64.80
2019-03-24T03:29:20.139Z,64.80
2019-03-24T03:31:51.659Z,64.90
2019-03-24T03:34:22.769Z,64.90
2019-03-24T03:36:54.437Z,64.80
2019-03-24T03:39:24.392Z,64.70
2019-03-24T03:41:55.718Z,64.90
2019-03-24T03:44:27.679Z,64.90
2019-03-24T03:46:58.743Z,64.60
2019-03-24T03:49:29.046Z,64.90
2019-03-24T03:51:59.221Z,65.00
2019-03-24T03:54:29.463Z,65.00
2019-03-24T03:56:59.298Z,64.90
2019-03-24T03:59:29.576Z,65.10
2019-03-24T04:02:02.703Z,65.00
2019-03-24T04:04:32.987Z,64.60
2019-03-24T04:07:02.569Z,64.50
2019-03-24T04:09:32.606Z,64.40
2019-03-24T04:12:02.990Z,65.10
2019-03-24T04:14:32.561Z,65.00
2019-03-24T04:17:07.650Z,64.50
2019-03-24T04:19:34.840Z,64.30
2019-03-24T04:22:06.469Z,64.20
2019-03-24T04:24:36.786Z,64.10
2019-03-24T04:27:11.162Z,64.30
2019-03-24T04:29:41.429Z,64.90
2019-03-24T04:32:13.916Z,65.00
2019-03-24T04:34:45.854Z,65.00
2019-03-24T04:37:19.890Z,65.20
2019-03-24T04:39:51.658Z,64.60
2019-03-24T04:42:24.512Z,64.10
2019-03-24T04:44:54.592Z,64.00
2019-03-24T04:47:25.390Z,63.90
2019-03-24T04:49:58.562Z,63.70
2019-03-24T04:52:29.800Z,63.60
2019-03-24T04:55:00.645Z,63.80
2019-03-24T04:57:31.390Z,64.10
2019-03-24T05:00:02.081Z,64.10
2019-03-24T05:02:31.754Z,64.10
2019-03-24T05:05:02.934Z,63.90
2019-03-24T05:07:33.167Z,64.10
2019-03-24T05:10:03.856Z,63.90
2019-03-24T05:12:34.731Z,63.50
2019-03-24T05:15:04.807Z,63.70
2019-03-24T05:17:35.043Z,64.10
2019-03-24T05:20:05.506Z,64.40
2019-03-24T05:22:35.133Z,64.30
2019-03-24T05:25:04.889Z,64.70
2019-03-24T05:27:35.989Z,65.00
2019-03-24T05:30:06.227Z,64.70
2019-03-24T05:32:36.815Z,64.70
2019-03-24T05:35:07.249Z,64.70
2019-03-24T05:37:37.584Z,64.60
2019-03-24T05:40:08.609Z,64.80
2019-03-24T05:42:40.462Z,64.70
2019-03-24T05:45:11.136Z,64.70
2019-03-24T05:47:40.975Z,64.70
2019-03-24T05:50:11.266Z,64.60
2019-03-24T05:52:42.061Z,65.10
2019-03-24T05:55:12.632Z,65.20
2019-03-24T05:57:42.433Z,65.40
2019-03-24T06:00:13.003Z,65.50
2019-03-24T06:02:43.581Z,65.50
2019-03-24T06:05:13.939Z,65.20
2019-03-24T06:07:43.730Z,65.20
2019-03-24T06:10:13.862Z,65.40
2019-03-24T06:12:44.782Z,65.90
2019-03-24T06:15:14.917Z,66.00
2019-03-24T06:17:47.948Z,66.00
2019-03-24T06:20:16.075Z,64.80
2019-03-24T06:22:45.746Z,64.50
2019-03-24T06:25:15.783Z,64.60
2019-03-24T06:27:46.162Z,64.90
2019-03-24T06:30:16.887Z,64.70
2019-03-24T06:32:46.971Z,64.50
2019-03-24T06:35:17.979Z,64.20
2019-03-24T06:37:48.184Z,64.20
2019-03-24T06:40:24.062Z,64.00
2019-03-24T06:42:55.010Z,64.20
2019-03-24T06:45:28.799Z,64.30
2019-03-24T06:47:58.835Z,64.60
2019-03-24T06:50:33.199Z,64.10
2019-03-24T06:53:04.198Z,63.30
2019-03-24T06:55:35.421Z,62.70
2019-03-24T06:58:06.465Z,62.70
2019-03-24T07:00:37.183Z,63.20
2019-03-24T07:03:08.104Z,63.50
2019-03-24T07:05:36.421Z,63.20
2019-03-24T07:08:05.392Z,63.20
2019-03-24T07:10:36.625Z,63.20
2019-03-24T07:13:05.262Z,63.20
2019-03-24T07:15:34.034Z,62.90
2019-03-24T07:18:08.306Z,62.70
2019-03-24T07:20:33.567Z,62.80
2019-03-24T07:23:02.634Z,62.50
2019-03-24T07:25:31.031Z,62.70
2019-03-24T07:27:59.604Z,62.50
2019-03-24T07:30:30.692Z,62.10
2019-03-24T07:32:59.550Z,61.80
2019-03-24T07:35:29.192Z,60.70
2019-03-24T07:37:59.532Z,59.30
2019-03-24T07:40:29.340Z,59.30
2019-03-24T07:43:00.264Z,58.90
2019-03-24T07:45:32.113Z,58.00
2019-03-24T07:48:02.706Z,56.10
2019-03-24T07:50:34.039Z,54.40
2019-03-24T07:53:07.133Z,52.30
2019-03-24T07:55:37.489Z,51.30
2019-03-24T07:58:08.051Z,50.80
2019-03-24T08:00:38.896Z,49.40
2019-03-24T08:03:09.379Z,48.30
2019-03-24T08:05:39.437Z,46.90
2019-03-24T08:08:09.982Z,45.60
2019-03-24T08:10:40.254Z,45.30
2019-03-24T08:13:09.943Z,44.40
2019-03-24T08:15:41.550Z,43.50
2019-03-24T08:18:11.791Z,43.10
2019-03-24T08:20:42.100Z,43.20
2019-03-24T08:23:14.049Z,42.20
2019-03-24T08:25:44.603Z,42.70
2019-03-24T08:28:16.010Z,44.30
2019-03-24T08:30:46.243Z,44.60
2019-03-24T08:33:18.062Z,41.80
2019-03-24T08:35:51.896Z,40.80
2019-03-24T08:38:23.461Z,39.80
2019-03-24T08:40:53.288Z,39.70
2019-03-24T08:43:23.303Z,39.00
2019-03-24T08:45:55.977Z,38.50
2019-03-24T08:48:25.964Z,37.70
2019-03-24T08:50:56.697Z,38.50
2019-03-24T08:53:28.303Z,38.10
2019-03-24T08:55:58.575Z,38.40
2019-03-24T08:58:28.867Z,38.90
2019-03-24T09:00:58.964Z,38.10
2019-03-24T09:03:29.737Z,36.80
2019-03-24T09:06:04.286Z,35.60
2019-03-24T09:08:34.537Z,35.10
2019-03-24T09:11:05.853Z,33.90
2019-03-24T09:13:37.937Z,34.00
2019-03-24T09:16:07.910Z,33.90
2019-03-24T09:18:52.076Z,33.80
2019-03-24T09:21:13.337Z,34.30
2019-03-24T09:23:47.921Z,32.70
2019-03-24T09:26:22.199Z,33.60
2019-03-24T09:28:56.255Z,35.40
2019-03-24T09:31:31.015Z,33.80
2019-03-24T09:34:03.005Z,32.80
2019-03-24T09:36:33.112Z,30.30
2019-03-24T09:39:05.684Z,28.80
2019-03-24T09:41:37.110Z,27.60
2019-03-24T09:44:08.191Z,26.90
2019-03-24T09:46:39.697Z,25.70
2019-03-24T09:49:09.747Z,25.00
2019-03-24T09:51:41.561Z,23.00
2019-03-24T09:54:12.160Z,22.30
2019-03-24T09:56:47.041Z,20.40
2019-03-24T09:59:17.597Z,22.40
2019-03-24T10:01:48.081Z,24.20
2019-03-24T10:04:18.701Z,23.60
2019-03-24T10:06:49.075Z,26.10
2019-03-24T10:09:20.139Z,27.00
2019-03-24T10:11:51.255Z,25.00
2019-03-24T10:14:21.806Z,22.60
2019-03-24T10:16:52.741Z,22.20
2019-03-24T10:19:23.539Z,21.50
2019-03-24T10:21:55.240Z,22.40
2019-03-24T10:24:25.384Z,25.50
2019-03-24T10:26:55.565Z,24.50
2019-03-24T10:29:25.365Z,22.30
2019-03-24T10:31:55.636Z,24.10
2019-03-24T10:34:25.846Z,23.50
2019-03-24T10:37:13.046Z,22.40
2019-03-24T10:39:44.951Z,23.70
2019-03-24T10:42:14.591Z,28.10
2019-03-24T10:44:45.458Z,29.00
2019-03-24T10:47:15.563Z,29.60
2019-03-24T10:49:47.641Z,29.90
2019-03-24T10:52:19.140Z,31.20
2019-03-24T10:54:49.114Z,32.40
2019-03-24T10:57:21.516Z,33.10
2019-03-24T10:59:52.153Z,33.10
2019-03-24T11:02:23.262Z,33.60
2019-03-24T11:05:00.426Z,34.60
2019-03-24T11:07:32.026Z,35.60
2019-03-24T11:10:02.898Z,35.30
2019-03-24T11:12:32.938Z,36.50
2019-03-24T11:15:04.302Z,36.80
2019-03-24T11:17:34.805Z,36.20
2019-03-24T11:20:05.200Z,34.90
2019-03-24T11:22:35.636Z,36.80
2019-03-24T11:25:09.192Z,37.20
2019-03-24T11:27:39.412Z,36.50
2019-03-24T11:30:12.405Z,36.70
2019-03-24T11:32:42.398Z,37.60
2019-03-24T11:35:14.689Z,38.00
2019-03-24T11:37:45.089Z,37.50
2019-03-24T11:40:15.730Z,37.50
2019-03-24T11:42:45.254Z,37.80
2019-03-24T11:45:15.642Z,35.60
2019-03-24T11:47:46.569Z,35.80
2019-03-24T11:50:16.562Z,35.80
2019-03-24T11:52:45.044Z,36.30
2019-03-24T11:55:13.537Z,37.00
2019-03-24T11:57:42.620Z,36.90
2019-03-24T12:00:13.181Z,36.90
2019-03-24T12:02:42.685Z,36.60
2019-03-24T12:05:11.313Z,37.80
2019-03-24T12:07:40.071Z,38.00
2019-03-24T12:10:09.106Z,36.80
2019-03-24T12:12:37.442Z,35.90
2019-03-24T12:15:07.123Z,35.60
2019-03-24T12:17:38.330Z,36.40
2019-03-24T12:20:08.777Z,35.70
2019-03-24T12:22:38.697Z,36.00
2019-03-24T12:25:09.165Z,37.20
2019-03-24T12:27:39.128Z,36.60
2019-03-24T12:30:10.074Z,37.20
2019-03-24T12:32:40.320Z,37.00
2019-03-24T12:35:10.473Z,36.80
2019-03-24T12:37:42.339Z,35.50
2019-03-24T12:40:12.922Z,35.70
2019-03-24T12:42:43.121Z,35.60
2019-03-24T12:45:17.554Z,36.30
2019-03-24T12:47:51.270Z,35.90
2019-03-24T12:50:31.464Z,36.40
2019-03-24T12:52:57.291Z,37.00
2019-03-24T12:55:27.108Z,37.10
2019-03-24T12:57:58.526Z,37.10
2019-03-24T13:00:47.464Z,37.40
2019-03-24T13:03:17.570Z,37.20
2019-03-24T13:05:49.550Z,36.30
2019-03-24T13:08:19.717Z,36.40
2019-03-24T13:10:51.101Z,36.00
2019-03-24T13:13:20.957Z,36.00
2019-03-24T13:15:53.274Z,36.00
2019-03-24T13:18:22.842Z,36.50
2019-03-24T13:20:53.967Z,36.80
2019-03-24T13:23:24.230Z,36.60
2019-03-24T13:25:54.944Z,36.20
2019-03-24T13:28:25.044Z,35.70
2019-03-24T13:30:56.664Z,35.00
2019-03-24T13:33:27.507Z,34.80
2019-03-24T13:36:12.946Z,35.30
2019-03-24T13:38:44.676Z,35.20
2019-03-24T13:41:16.440Z,35.20
2019-03-24T13:43:46.693Z,35.20
2019-03-24T13:46:18.000Z,35.10
2019-03-24T13:48:49.724Z,35.10
2019-03-24T13:51:22.134Z,35.40
2019-03-24T13:53:54.363Z,35.50
2019-03-24T13:56:29.468Z,35.50
2019-03-24T13:59:01.431Z,35.50
2019-03-24T14:01:32.507Z,35.50
2019-03-24T14:04:03.753Z,35.60
2019-03-24T14:06:34.458Z,35.00
2019-03-24T14:09:08.659Z,34.80
2019-03-24T14:11:39.352Z,34.80
2019-03-24T14:14:09.479Z,34.20
2019-03-24T14:16:41.828Z,34.20
2019-03-24T14:19:12.197Z,34.30
2019-03-24T14:21:42.179Z,34.50
2019-03-24T14:24:12.088Z,34.50
2019-03-24T14:26:42.859Z,34.70
2019-03-24T14:29:13.522Z,34.90
2019-03-24T14:31:44.186Z,34.80
2019-03-24T14:34:14.200Z,34.40
2019-03-24T14:36:45.055Z,35.00
2019-03-24T14:39:15.433Z,36.60
2019-03-24T14:41:44.959Z,36.60
2019-03-24T14:44:15.664Z,35.70
2019-03-24T14:46:45.855Z,35.30
2019-03-24T14:49:16.187Z,35.50
2019-03-24T14:51:46.895Z,35.10
2019-03-24T14:54:17.751Z,35.20
2019-03-24T14:56:48.172Z,35.00
2019-03-24T14:59:19.999Z,35.50
2019-03-24T15:02:03.299Z,35.70
2019-03-24T15:04:54.285Z,35.60
2019-03-24T15:07:35.942Z,35.20
2019-03-24T15:10:10.869Z,36.40
2019-03-24T15:12:45.042Z,36.20
2019-03-24T15:15:15.472Z,36.40
2019-03-24T15:17:45.738Z,36.80
2019-03-24T15:20:15.663Z,36.80
2019-03-24T15:22:45.920Z,37.10
2019-03-24T15:25:15.577Z,37.50
2019-03-24T15:27:47.701Z,37.60
2019-03-24T15:30:18.527Z,37.50
2019-03-24T15:32:48.497Z,37.00
2019-03-24T15:35:20.606Z,37.90
2019-03-24T15:37:50.340Z,37.70
2019-03-24T15:40:25.400Z,38.20
2019-03-24T15:42:56.098Z,38.70
2019-03-24T15:45:27.786Z,37.50
2019-03-24T15:48:00.959Z,37.40
2019-03-24T15:50:31.317Z,37.30
2019-03-24T15:53:02.434Z,37.40
2019-03-24T15:55:33.855Z,38.40
2019-03-24T15:58:03.725Z,37.80
2019-03-24T16:00:47.108Z,37.90
2019-03-24T16:03:17.632Z,37.80
2019-03-24T16:05:47.624Z,38.00
2019-03-24T16:08:17.421Z,38.40
2019-03-24T16:10:48.466Z,38.20
2019-03-24T16:13:19.062Z,38.00
2019-03-24T16:15:51.350Z,38.50
2019-03-24T16:18:25.190Z,38.70
2019-03-24T16:20:55.496Z,39.80
2019-03-24T16:23:25.686Z,39.40
2019-03-24T16:25:58.544Z,39.10
2019-03-24T16:28:36.387Z,39.00
2019-03-24T16:31:08.573Z,38.80
2019-03-24T16:33:39.498Z,38.20
2019-03-24T16:36:09.691Z,38.60
2019-03-24T16:38:48.514Z,39.00
2019-03-24T16:41:11.525Z,39.60
2019-03-24T16:43:41.605Z,40.50
2019-03-24T16:46:12.472Z,40.50
2019-03-24T16:48:43.324Z,41.20
2019-03-24T16:51:15.491Z,42.50
2019-03-24T16:53:45.048Z,42.80
2019-03-24T16:56:15.283Z,42.80
2019-03-24T16:58:45.265Z,43.00
2019-03-24T17:01:15.354Z,43.10
2019-03-24T17:03:46.756Z,43.30
2019-03-24T17:06:18.004Z,43.60
2019-03-24T17:08:48.569Z,43.30
2019-03-24T17:11:21.042Z,43.70
2019-03-24T17:13:50.658Z,43.50
2019-03-24T17:16:20.396Z,43.70
2019-03-24T17:18:52.311Z,43.80
2019-03-24T17:21:22.034Z,44.10
2019-03-24T17:23:52.584Z,44.10
2019-03-24T17:26:26.659Z,44.20
2019-03-24T17:28:57.493Z,44.00
2019-03-24T17:31:27.202Z,44.30
2019-03-24T17:33:57.740Z,44.70
2019-03-24T17:36:29.014Z,44.90
2019-03-24T17:39:04.723Z,45.00
2019-03-24T17:41:34.971Z,45.40
2019-03-24T17:44:04.897Z,46.00
2019-03-24T17:46:42.788Z,46.80
2019-03-24T17:49:13.359Z,47.80
2019-03-24T17:51:43.452Z,48.20
2019-03-24T17:54:13.782Z,49.00
2019-03-24T17:56:45.640Z,49.30
2019-03-24T17:59:15.146Z,49.50
2019-03-24T18:01:46.726Z,49.60
2019-03-24T18:04:16.803Z,50.50
2019-03-24T18:06:46.892Z,50.80
2019-03-24T18:09:16.919Z,51.60
2019-03-24T18:11:47.486Z,52.10
2019-03-24T18:14:17.839Z,52.70
2019-03-24T18:16:48.502Z,53.50
2019-03-24T18:19:18.926Z,54.20
2019-03-24T18:21:50.285Z,54.70
2019-03-24T18:24:21.038Z,55.10
2019-03-24T18:26:58.609Z,55.00
2019-03-24T18:29:28.745Z,55.60
2019-03-24T18:32:00.300Z,55.50
2019-03-24T18:34:30.680Z,56.00
2019-03-24T18:37:03.458Z,56.20
2019-03-24T18:39:34.819Z,56.30
2019-03-24T18:42:06.418Z,57.90
2019-03-24T18:44:36.862Z,58.30
2019-03-24T18:47:06.884Z,58.10
2019-03-24T18:49:37.297Z,57.60
2019-03-24T18:52:07.718Z,57.60
2019-03-24T18:54:38.311Z,57.30
2019-03-24T18:57:08.378Z,57.30
2019-03-24T18:59:46.190Z,56.30
2019-03-24T19:02:25.643Z,56.20
2019-03-24T19:04:55.958Z,55.90
2019-03-24T19:07:27.739Z,55.80
2019-03-24T19:10:01.594Z,56.10
2019-03-24T19:12:31.828Z,55.60
2019-03-24T19:15:02.008Z,55.70
2019-03-24T19:17:31.822Z,56.20
2019-03-24T19:20:04.263Z,56.10
2019-03-24T19:22:35.859Z,56.40
2019-03-24T19:25:17.203Z,56.70
2019-03-24T19:27:47.725Z,57.10
2019-03-24T19:30:19.688Z,57.40
2019-03-24T19:32:49.736Z,57.40
2019-03-24T19:35:20.355Z,57.20
2019-03-24T19:37:52.739Z,56.80
2019-03-24T19:40:34.005Z,56.70
2019-03-24T19:43:05.630Z,56.60
2019-03-24T19:45:44.599Z,57.20
2019-03-24T19:48:15.473Z,57.20
2019-03-24T19:51:00.661Z,58.10
2019-03-24T19:53:27.904Z,57.80
2019-03-24T19:56:05.715Z,58.10
2019-03-24T19:58:40.201Z,58.50
2019-03-24T20:01:10.229Z,58.80
2019-03-24T20:03:43.523Z,58.80
2019-03-24T20:06:14.420Z,58.70
2019-03-24T20:08:44.856Z,59.00
2019-03-24T20:11:15.630Z,58.90
2019-03-24T20:13:45.777Z,58.80
2019-03-24T20:16:16.092Z,59.50
2019-03-24T20:18:46.705Z,59.90
2019-03-24T20:21:16.505Z,60.30
2019-03-24T20:23:46.857Z,60.50
2019-03-24T20:26:21.718Z,61.00
2019-03-24T20:28:52.024Z,60.90
2019-03-24T20:31:21.875Z,61.00
2019-03-24T20:33:52.601Z,61.90
2019-03-24T20:36:22.698Z,62.70
2019-03-24T20:38:52.898Z,63.40
2019-03-24T20:41:27.966Z,64.30
2019-03-24T20:44:18.678Z,64.20
2019-03-24T20:46:49.487Z,64.60
2019-03-24T20:49:20.408Z,65.40
2019-03-24T20:51:50.319Z,65.50
2019-03-24T20:54:20.298Z,65.80
2019-03-24T20:56:51.298Z,65.50
2019-03-24T20:59:21.277Z,65.20
2019-03-24T21:01:52.333Z,65.40
2019-03-24T21:04:25.255Z,66.10
2019-03-24T21:06:56.395Z,66.70
2019-03-24T21:09:26.614Z,66.70
2019-03-24T21:11:58.939Z,66.70
2019-03-24T21:14:30.083Z,66.70
2019-03-24T21:17:01.107Z,65.80
2019-03-24T21:19:34.643Z,65.00
2019-03-24T21:22:07.271Z,64.60
2019-03-24T21:24:40.412Z,65.50
2019-03-24T21:27:11.471Z,66.20
2019-03-24T21:29:42.313Z,66.60
2019-03-24T21:32:12.880Z,66.70
2019-03-24T21:34:43.431Z,66.60
2019-03-24T21:40:15.439Z,66.60
2019-03-24T21:42:47.910Z,67.20
2019-03-24T21:45:18.302Z,67.80
2019-03-24T21:47:48.428Z,67.50
2019-03-24T21:50:24.648Z,67.80
2019-03-24T21:52:56.561Z,67.40
2019-03-24T21:55:27.446Z,67.60
2019-03-24T21:57:58.055Z,67.80
2019-03-24T22:00:36.491Z,67.20
2019-03-24T22:03:09.095Z,66.90
2019-03-24T22:05:40.301Z,66.60
2019-03-24T22:08:13.421Z,66.50
2019-03-24T22:10:46.811Z,67.50
2019-03-24T22:13:21.048Z,67.80
2019-03-24T22:15:57.029Z,67.70
2019-03-24T22:18:28.381Z,68.20
2019-03-24T22:21:02.606Z,67.70
2019-03-24T22:23:37.184Z,67.60
2019-03-24T22:26:08.353Z,67.90
2019-03-24T22:28:43.887Z,68.00
2019-03-24T22:31:14.414Z,68.30
2019-03-24T22:33:55.432Z,68.30
2019-03-24T22:36:33.676Z,68.50
2019-03-24T22:39:06.204Z,68.70
2019-03-24T22:41:37.843Z,68.20
2019-03-24T22:44:09.772Z,68.60
2019-03-24T22:46:52.729Z,68.60
2019-03-24T22:49:24.477Z,68.90
2019-03-24T22:52:06.889Z,69.20
2019-03-24T22:54:29.064Z,68.90
2019-03-24T22:57:09.514Z,69.60
2019-03-24T22:59:42.057Z,69.80
2019-03-24T23:02:15.136Z,69.50
2019-03-24T23:04:50.727Z,69.50
2019-03-24T23:07:21.966Z,69.50
2019-03-24T23:09:52.605Z,70.40
2019-03-24T23:12:22.833Z,69.60
2019-03-24T23:14:53.299Z,69.60
2019-03-24T23:17:23.596Z,69.80
2019-03-24T23:19:55.783Z,70.30
2019-03-24T23:22:26.270Z,70.10
2019-03-24T23:24:57.512Z,70.00
2019-03-24T23:28:01.193Z,70.30
2019-03-24T23:30:31.075Z,70.50
2019-03-24T23:33:02.205Z,71.20
2019-03-24T23:35:33.173Z,70.30
2019-03-24T23:38:04.624Z,69.90
2019-03-24T23:40:36.186Z,69.80
2019-03-24T23:43:06.032Z,70.00
2019-03-24T23:45:39.505Z,70.00
2019-03-24T23:48:10.837Z,70.10
2019-03-24T23:50:59.824Z,70.60
2019-03-24T23:53:30.172Z,70.80
2019-03-24T23:56:00.376Z,70.80
2019-03-24T23:58:40.429Z,71.00
